sensor_id;sensor_type;location;lat;lon;timestamp;pressure;altitude;pressure_sealevel;temperature;humidity
35908;BME280;22003;50.320;8.054;2023-05-03T04:02:55;100787.97;;;0.08;100.00
35908;BME280;22003;50.320;8.054;2023-05-03T04:05:20;100781.63;;;0.21;100.00
35908;BME280;22003;50.320;8.054;2023-05-03T04:07:45;100774.84;;;0.12;100.00
35908;BME280;22003;50.320;8.054;2023-05-03T04:10:11;100809.47;;;0.64;100.00
35908;BME280;22003;50.320;8.054;2023-05-03T04:12:36;100801.41;;;0.31;100.00
35908;BME280;22003;50.320;8.054;2023-05-03T04:17:31;100792.66;;;0.35;100.00
35908;BME280;22003;50.320;8.054;2023-05-03T04:19:59;100783.56;;;0.56;100.00
35908;BME280;22003;50.320;8.054;2023-05-03T04:22:24;100806.00;;;1.03;100.00
35908;BME280;22003;50.320;8.054;2023-05-03T04:24:49;100806.31;;;1.28;100.00
35908;BME280;22003;50.320;8.054;2023-05-03T04:27:14;100778.56;;;1.24;100.00
35908;BME280;22003;50.320;8.054;2023-05-03T04:29:42;100808.34;;;1.53;100.00
35908;BME280;22003;50.320;8.054;2023-05-03T04:32:07;100807.38;;;1.57;100.00
35908;BME280;22003;50.320;8.054;2023-05-03T04:34:33;100806.97;;;1.74;100.00
35908;BME280;22003;50.320;8.054;2023-05-03T04:36:59;100798.59;;;1.59;100.00
35908;BME280;22003;50.320;8.054;2023-05-03T04:39:24;100777.88;;;1.53;100.00
35908;BME280;22003;50.320;8.054;2023-05-03T04:41:49;100799.19;;;1.71;100.00
35908;BME280;22003;50.320;8.054;2023-05-03T04:44:15;100801.13;;;1.98;100.00
35908;BME280;22003;50.320;8.054;2023-05-03T04:46:40;100802.28;;;2.21;100.00
35908;BME280;22003;50.320;8.054;2023-05-03T04:49:05;100801.44;;;2.51;98.15
35908;BME280;22003;50.320;8.054;2023-05-03T04:51:31;100797.59;;;2.33;96.65
35908;BME280;22003;50.320;8.054;2023-05-03T04:53:57;100808.50;;;2.15;96.76
35908;BME280;22003;50.320;8.054;2023-05-03T04:56:22;100809.59;;;2.41;98.94
35908;BME280;22003;50.320;8.054;2023-05-03T04:58:51;100816.19;;;2.54;99.15
35908;BME280;22003;50.320;8.054;2023-05-03T05:01:17;100812.59;;;2.58;97.89
35908;BME280;22003;50.320;8.054;2023-05-03T05:03:42;100794.03;;;2.65;97.03
35908;BME280;22003;50.320;8.054;2023-05-03T05:06:07;100812.56;;;2.89;97.05
35908;BME280;22003;50.320;8.054;2023-05-03T05:08:34;100807.72;;;3.33;95.72
35908;BME280;22003;50.320;8.054;2023-05-03T05:11:01;100811.75;;;3.16;94.34
35908;BME280;22003;50.320;8.054;2023-05-03T05:13:26;100817.16;;;3.10;95.63
35908;BME280;22003;50.320;8.054;2023-05-03T05:15:51;100790.81;;;2.87;95.02
35908;BME280;22003;50.320;8.054;2023-05-03T05:18:16;100810.84;;;3.17;95.86
35908;BME280;22003;50.320;8.054;2023-05-03T05:20:42;100809.53;;;3.03;96.08
35908;BME280;22003;50.320;8.054;2023-05-03T05:23:07;100816.63;;;3.55;96.58
35908;BME280;22003;50.320;8.054;2023-05-03T05:25:32;100822.75;;;3.56;96.18
35908;BME280;22003;50.320;8.054;2023-05-03T05:27:57;100791.34;;;3.81;93.10
35908;BME280;22003;50.320;8.054;2023-05-03T05:30:23;100807.13;;;3.79;93.25
35908;BME280;22003;50.320;8.054;2023-05-03T05:32:48;100800.25;;;4.02;93.89
35908;BME280;22003;50.320;8.054;2023-05-03T05:35:13;100807.47;;;3.95;93.64
35908;BME280;22003;50.320;8.054;2023-05-03T05:37:41;100805.22;;;4.09;92.67
35908;BME280;22003;50.320;8.054;2023-05-03T05:40:07;100803.16;;;4.19;92.14
35908;BME280;22003;50.320;8.054;2023-05-03T05:42:32;100788.25;;;4.19;94.00
35908;BME280;22003;50.320;8.054;2023-05-03T05:44:57;100796.38;;;4.37;92.39
35908;BME280;22003;50.320;8.054;2023-05-03T05:47:23;100803.03;;;4.47;92.00
35908;BME280;22003;50.320;8.054;2023-05-03T05:49:48;100803.22;;;4.89;90.97
35908;BME280;22003;50.320;8.054;2023-05-03T05:52:13;100798.59;;;4.24;92.31
35908;BME280;22003;50.320;8.054;2023-05-03T05:54:38;100825.59;;;4.28;95.09
35908;BME280;22003;50.320;8.054;2023-05-03T05:57:04;100825.19;;;4.87;92.10
35908;BME280;22003;50.320;8.054;2023-05-03T05:59:29;100832.44;;;5.03;93.80
35908;BME280;22003;50.320;8.054;2023-05-03T06:01:55;100812.03;;;5.10;93.34
35908;BME280;22003;50.320;8.054;2023-05-03T06:04:21;100810.09;;;5.15;93.33
35908;BME280;22003;50.320;8.054;2023-05-03T06:06:46;100813.72;;;5.35;92.21
35908;BME280;22003;50.320;8.054;2023-05-03T06:09:12;100831.63;;;5.69;91.76
35908;BME280;22003;50.320;8.054;2023-05-03T06:11:38;100796.53;;;5.92;90.62
35908;BME280;22003;50.320;8.054;2023-05-03T06:14:04;100828.16;;;5.68;91.18
35908;BME280;22003;50.320;8.054;2023-05-03T06:16:33;100834.56;;;5.39;93.20
35908;BME280;22003;50.320;8.054;2023-05-03T06:18:58;100814.44;;;5.60;92.22
35908;BME280;22003;50.320;8.054;2023-05-03T06:21:24;100834.00;;;5.97;92.88
35908;BME280;22003;50.320;8.054;2023-05-03T06:23:50;100830.34;;;5.57;91.65
35908;BME280;22003;50.320;8.054;2023-05-03T06:26:15;100832.03;;;5.14;91.48
35908;BME280;22003;50.320;8.054;2023-05-03T06:28:41;100808.84;;;5.02;92.71
35908;BME280;22003;50.320;8.054;2023-05-03T06:31:07;100825.97;;;5.12;94.22
35908;BME280;22003;50.320;8.054;2023-05-03T06:33:32;100823.56;;;5.29;92.77
35908;BME280;22003;50.320;8.054;2023-05-03T06:35:57;100840.03;;;5.11;92.53
35908;BME280;22003;50.320;8.054;2023-05-03T06:38:23;100824.28;;;5.55;94.80
35908;BME280;22003;50.320;8.054;2023-05-03T06:40:48;100833.50;;;5.65;92.59
35908;BME280;22003;50.320;8.054;2023-05-03T06:43:15;100827.97;;;5.51;92.37
35908;BME280;22003;50.320;8.054;2023-05-03T06:45:41;100825.44;;;5.48;92.38
35908;BME280;22003;50.320;8.054;2023-05-03T06:48:07;100824.28;;;5.55;92.69
35908;BME280;22003;50.320;8.054;2023-05-03T06:50:32;100818.56;;;5.67;93.16
35908;BME280;22003;50.320;8.054;2023-05-03T06:52:57;100839.00;;;6.03;94.68
35908;BME280;22003;50.320;8.054;2023-05-03T06:55:23;100812.78;;;5.79;92.78
35908;BME280;22003;50.320;8.054;2023-05-03T06:57:48;100832.84;;;6.04;91.58
35908;BME280;22003;50.320;8.054;2023-05-03T07:00:14;100825.50;;;6.12;91.06
35908;BME280;22003;50.320;8.054;2023-05-03T07:02:40;100826.50;;;6.49;91.66
35908;BME280;22003;50.320;8.054;2023-05-03T07:05:05;100809.81;;;6.29;89.97
35908;BME280;22003;50.320;8.054;2023-05-03T07:07:31;100824.72;;;6.49;89.81
35908;BME280;22003;50.320;8.054;2023-05-03T07:09:57;100820.47;;;6.47;87.55
35908;BME280;22003;50.320;8.054;2023-05-03T07:12:22;100828.34;;;6.67;89.26
35908;BME280;22003;50.320;8.054;2023-05-03T07:14:52;100815.38;;;6.63;88.26
35908;BME280;22003;50.320;8.054;2023-05-03T07:17:17;100814.75;;;6.76;87.94
35908;BME280;22003;50.320;8.054;2023-05-03T07:19:42;100805.50;;;6.86;88.74
35908;BME280;22003;50.320;8.054;2023-05-03T07:22:07;100810.59;;;6.91;87.08
35908;BME280;22003;50.320;8.054;2023-05-03T07:24:33;100812.06;;;7.15;86.90
35908;BME280;22003;50.320;8.054;2023-05-03T07:26:58;100800.47;;;7.20;85.64
35908;BME280;22003;50.320;8.054;2023-05-03T07:29:23;100802.75;;;7.63;85.59
35908;BME280;22003;50.320;8.054;2023-05-03T07:31:49;100803.28;;;7.53;83.27
35908;BME280;22003;50.320;8.054;2023-05-03T07:34:14;100805.78;;;7.56;81.35
35908;BME280;22003;50.320;8.054;2023-05-03T07:36:39;100767.59;;;7.46;81.42
35908;BME280;22003;50.320;8.054;2023-05-03T07:39:05;100777.78;;;7.88;81.30
35908;BME280;22003;50.320;8.054;2023-05-03T07:41:30;100797.44;;;8.00;80.82
35908;BME280;22003;50.320;8.054;2023-05-03T07:43:56;100748.31;;;7.80;79.74
35908;BME280;22003;50.320;8.054;2023-05-03T07:46:21;100788.47;;;8.19;80.41
35908;BME280;22003;50.320;8.054;2023-05-03T07:48:47;100792.28;;;8.31;77.89
35908;BME280;22003;50.320;8.054;2023-05-03T07:51:12;100788.06;;;8.62;77.28
35908;BME280;22003;50.320;8.054;2023-05-03T07:53:37;100780.81;;;8.50;77.11
35908;BME280;22003;50.320;8.054;2023-05-03T07:56:05;100778.06;;;9.00;77.80
35908;BME280;22003;50.320;8.054;2023-05-03T07:58:31;100793.31;;;9.26;75.25
35908;BME280;22003;50.320;8.054;2023-05-03T08:00:56;100785.22;;;9.14;74.94
35908;BME280;22003;50.320;8.054;2023-05-03T08:03:21;100772.84;;;9.46;74.75
35908;BME280;22003;50.320;8.054;2023-05-03T08:05:47;100774.06;;;9.24;73.41
35908;BME280;22003;50.320;8.054;2023-05-03T08:08:13;100780.03;;;9.28;78.71
35908;BME280;22003;50.320;8.054;2023-05-03T08:10:38;100781.91;;;8.94;73.43
35908;BME280;22003;50.320;8.054;2023-05-03T08:13:04;100776.09;;;9.04;70.59
35908;BME280;22003;50.320;8.054;2023-05-03T08:15:32;100785.56;;;9.39;74.12
35908;BME280;22003;50.320;8.054;2023-05-03T08:17:58;100789.16;;;9.07;72.88
35908;BME280;22003;50.320;8.054;2023-05-03T08:20:24;100787.63;;;9.80;72.51
35908;BME280;22003;50.320;8.054;2023-05-03T08:22:51;100770.22;;;10.20;68.25
35908;BME280;22003;50.320;8.054;2023-05-03T08:25:18;100771.63;;;10.27;69.27
35908;BME280;22003;50.320;8.054;2023-05-03T08:27:44;100781.81;;;9.89;71.88
35908;BME280;22003;50.320;8.054;2023-05-03T08:30:10;100759.88;;;9.10;70.41
35908;BME280;22003;50.320;8.054;2023-05-03T08:32:35;100771.97;;;9.91;69.93
35908;BME280;22003;50.320;8.054;2023-05-03T08:35:00;100763.38;;;10.46;70.00
35908;BME280;22003;50.320;8.054;2023-05-03T08:37:29;100774.66;;;10.05;67.67
35908;BME280;22003;50.320;8.054;2023-05-03T08:39:54;100773.88;;;10.48;66.92
35908;BME280;22003;50.320;8.054;2023-05-03T08:42:19;100768.19;;;10.97;67.01
35908;BME280;22003;50.320;8.054;2023-05-03T08:44:46;100776.53;;;10.48;71.56
35908;BME280;22003;50.320;8.054;2023-05-03T08:47:16;100768.19;;;10.97;69.70
35908;BME280;22003;50.320;8.054;2023-05-03T08:49:44;100750.59;;;10.96;66.41
35908;BME280;22003;50.320;8.054;2023-05-03T08:52:11;100755.72;;;10.84;64.95
35908;BME280;22003;50.320;8.054;2023-05-03T08:54:37;100757.47;;;10.98;67.47
35908;BME280;22003;50.320;8.054;2023-05-03T08:57:03;100754.81;;;10.98;66.58
35908;BME280;22003;50.320;8.054;2023-05-03T08:59:32;100742.56;;;11.51;63.72
35908;BME280;22003;50.320;8.054;2023-05-03T09:01:58;100740.22;;;11.32;64.62
35908;BME280;22003;50.320;8.054;2023-05-03T09:04:31;100755.53;;;11.29;62.06
35908;BME280;22003;50.320;8.054;2023-05-03T09:07:06;100741.31;;;11.30;66.72
35908;BME280;22003;50.320;8.054;2023-05-03T09:09:32;100741.88;;;11.48;65.42
35908;BME280;22003;50.320;8.054;2023-05-03T09:11:57;100739.59;;;11.29;61.52
35908;BME280;22003;50.320;8.054;2023-05-03T09:14:22;100751.06;;;11.56;60.20
35908;BME280;22003;50.320;8.054;2023-05-03T09:16:48;100749.69;;;11.63;60.41
35908;BME280;22003;50.320;8.054;2023-05-03T09:19:14;100730.56;;;11.04;66.84
35908;BME280;22003;50.320;8.054;2023-05-03T09:21:41;100735.31;;;10.44;66.56
35908;BME280;22003;50.320;8.054;2023-05-03T09:24:15;100749.66;;;10.54;65.20
35908;BME280;22003;50.320;8.054;2023-05-03T09:26:41;100749.56;;;10.70;65.44
35908;BME280;22003;50.320;8.054;2023-05-03T09:29:07;100739.75;;;10.99;66.56
35908;BME280;22003;50.320;8.054;2023-05-03T09:31:33;100741.31;;;10.89;65.78
35908;BME280;22003;50.320;8.054;2023-05-03T09:33:59;100733.69;;;11.38;62.78
35908;BME280;22003;50.320;8.054;2023-05-03T09:36:25;100738.13;;;11.64;64.40
35908;BME280;22003;50.320;8.054;2023-05-03T09:38:52;100740.25;;;12.12;62.14
35908;BME280;22003;50.320;8.054;2023-05-03T09:41:25;100707.81;;;11.54;60.78
35908;BME280;22003;50.320;8.054;2023-05-03T09:43:51;100713.41;;;11.77;63.26
35908;BME280;22003;50.320;8.054;2023-05-03T09:46:19;100728.97;;;12.59;64.52
35908;BME280;22003;50.320;8.054;2023-05-03T09:48:44;100714.00;;;11.95;64.88
35908;BME280;22003;50.320;8.054;2023-05-03T09:51:11;100730.94;;;11.67;65.69
35908;BME280;22003;50.320;8.054;2023-05-03T09:53:38;100698.81;;;11.44;62.33
35908;BME280;22003;50.320;8.054;2023-05-03T09:56:05;100725.47;;;12.21;61.39
35908;BME280;22003;50.320;8.054;2023-05-03T09:58:34;100730.69;;;11.57;61.06
35908;BME280;22003;50.320;8.054;2023-05-03T10:00:59;100736.09;;;11.55;64.09
35908;BME280;22003;50.320;8.054;2023-05-03T10:03:45;100729.66;;;11.72;62.92
35908;BME280;22003;50.320;8.054;2023-05-03T10:06:29;100741.75;;;11.76;63.49
35908;BME280;22003;50.320;8.054;2023-05-03T10:09:02;100715.72;;;11.69;62.48
35908;BME280;22003;50.320;8.054;2023-05-03T10:11:32;100738.13;;;11.64;64.13
35908;BME280;22003;50.320;8.054;2023-05-03T10:13:58;100727.09;;;11.71;64.40
35908;BME280;22003;50.320;8.054;2023-05-03T10:16:27;100724.66;;;11.80;63.80
35908;BME280;22003;50.320;8.054;2023-05-03T10:18:59;100730.91;;;12.45;68.90
35908;BME280;22003;50.320;8.054;2023-05-03T10:22:07;100722.72;;;12.48;61.86
35908;BME280;22003;50.320;8.054;2023-05-03T10:24:34;100714.50;;;12.63;61.98
35908;BME280;22003;50.320;8.054;2023-05-03T10:26:59;100711.88;;;12.51;64.18
35908;BME280;22003;50.320;8.054;2023-05-03T10:32:30;100712.84;;;12.11;62.58
35908;BME280;22003;50.320;8.054;2023-05-03T10:35:16;100707.50;;;12.37;61.89
35908;BME280;22003;50.320;8.054;2023-05-03T10:37:42;100698.38;;;12.41;60.94
35908;BME280;22003;50.320;8.054;2023-05-03T10:40:12;100692.78;;;12.69;63.99
35908;BME280;22003;50.320;8.054;2023-05-03T10:42:39;100696.78;;;12.51;62.21
35908;BME280;22003;50.320;8.054;2023-05-03T10:45:07;100692.59;;;12.60;63.03
35908;BME280;22003;50.320;8.054;2023-05-03T10:47:33;100685.81;;;12.43;63.40
35908;BME280;22003;50.320;8.054;2023-05-03T10:57:37;100685.78;;;12.68;58.71
35908;BME280;22003;50.320;8.054;2023-05-03T11:00:04;100700.13;;;13.39;67.08
35908;BME280;22003;50.320;8.054;2023-05-03T11:02:37;100665.59;;;13.62;57.68
35908;BME280;22003;50.320;8.054;2023-05-03T11:05:07;100678.31;;;13.10;57.60
35908;BME280;22003;50.320;8.054;2023-05-03T11:07:35;100700.16;;;13.86;63.14
35908;BME280;22003;50.320;8.054;2023-05-03T11:10:00;100686.03;;;14.19;60.12
35908;BME280;22003;50.320;8.054;2023-05-03T11:12:25;100690.06;;;13.67;59.27
35908;BME280;22003;50.320;8.054;2023-05-03T11:14:50;100672.59;;;14.32;56.62
35908;BME280;22003;50.320;8.054;2023-05-03T11:17:16;100668.44;;;14.95;56.14
35908;BME280;22003;50.320;8.054;2023-05-03T11:19:45;100683.13;;;13.99;59.67
35908;BME280;22003;50.320;8.054;2023-05-03T11:22:10;100657.72;;;14.18;55.70
35908;BME280;22003;50.320;8.054;2023-05-03T11:24:36;100652.41;;;13.60;58.27
35908;BME280;22003;50.320;8.054;2023-05-03T11:27:02;100648.34;;;13.79;60.87
35908;BME280;22003;50.320;8.054;2023-05-03T11:29:27;100641.81;;;14.72;57.73
35908;BME280;22003;50.320;8.054;2023-05-03T11:31:53;100643.03;;;14.23;55.22
35908;BME280;22003;50.320;8.054;2023-05-03T11:34:18;100639.66;;;14.21;60.59
35908;BME280;22003;50.320;8.054;2023-05-03T11:36:43;100629.47;;;15.36;56.98
35908;BME280;22003;50.320;8.054;2023-05-03T11:39:12;100644.28;;;15.81;54.26
35908;BME280;22003;50.320;8.054;2023-05-03T11:41:38;100636.16;;;15.30;53.91
35908;BME280;22003;50.320;8.054;2023-05-03T11:44:03;100624.06;;;14.94;55.53
35908;BME280;22003;50.320;8.054;2023-05-03T11:46:32;100620.56;;;14.82;58.90
35908;BME280;22003;50.320;8.054;2023-05-03T11:48:59;100604.28;;;15.49;53.95
35908;BME280;22003;50.320;8.054;2023-05-03T11:51:25;100587.22;;;15.41;51.71
35908;BME280;22003;50.320;8.054;2023-05-03T11:53:51;100628.53;;;15.25;53.37
35908;BME280;22003;50.320;8.054;2023-05-03T11:56:17;100613.53;;;15.45;52.78
35908;BME280;22003;50.320;8.054;2023-05-03T11:58:57;100621.97;;;15.82;53.79
35908;BME280;22003;50.320;8.054;2023-05-03T12:01:25;100630.41;;;16.58;53.28
35908;BME280;22003;50.320;8.054;2023-05-03T12:03:56;100618.66;;;16.30;55.83
35908;BME280;22003;50.320;8.054;2023-05-03T12:06:22;100621.44;;;15.89;50.51
35908;BME280;22003;50.320;8.054;2023-05-03T12:08:47;100588.91;;;14.89;52.73
35908;BME280;22003;50.320;8.054;2023-05-03T12:11:12;100624.56;;;14.76;55.17
35908;BME280;22003;50.320;8.054;2023-05-03T12:13:38;100612.75;;;15.75;53.85
35908;BME280;22003;50.320;8.054;2023-05-03T12:16:05;100597.19;;;15.39;53.26
35908;BME280;22003;50.320;8.054;2023-05-03T12:18:50;100616.38;;;15.32;54.74
35908;BME280;22003;50.320;8.054;2023-05-03T12:21:17;100605.09;;;15.92;53.75
35908;BME280;22003;50.320;8.054;2023-05-03T12:23:42;100585.25;;;15.22;54.19
35908;BME280;22003;50.320;8.054;2023-05-03T12:26:07;100594.50;;;15.39;56.57
35908;BME280;22003;50.320;8.054;2023-05-03T12:28:33;100554.69;;;15.56;51.62
35908;BME280;22003;50.320;8.054;2023-05-03T12:30:59;100597.47;;;15.77;54.97
35908;BME280;22003;50.320;8.054;2023-05-03T12:33:24;100569.88;;;16.07;54.45
35908;BME280;22003;50.320;8.054;2023-05-03T12:35:49;100589.47;;;16.68;51.33
35908;BME280;22003;50.320;8.054;2023-05-03T12:38:15;100586.22;;;15.42;52.12
35908;BME280;22003;50.320;8.054;2023-05-03T12:40:40;100577.44;;;16.02;53.82
35908;BME280;22003;50.320;8.054;2023-05-03T12:43:06;100572.66;;;15.66;51.31
35908;BME280;22003;50.320;8.054;2023-05-03T12:45:31;100574.13;;;15.79;53.54
35908;BME280;22003;50.320;8.054;2023-05-03T12:47:57;100559.75;;;15.59;51.37
35908;BME280;22003;50.320;8.054;2023-05-03T12:50:22;100557.91;;;15.50;52.33
35908;BME280;22003;50.320;8.054;2023-05-03T12:52:48;100551.06;;;16.78;51.52
35908;BME280;22003;50.320;8.054;2023-05-03T12:55:14;100564.31;;;16.80;54.73
35908;BME280;22003;50.320;8.054;2023-05-03T12:57:39;100556.00;;;16.23;52.91
35908;BME280;22003;50.320;8.054;2023-05-03T13:00:08;100546.56;;;16.19;49.96
35908;BME280;22003;50.320;8.054;2023-05-03T13:02:34;100539.34;;;16.10;50.54
35908;BME280;22003;50.320;8.054;2023-05-03T13:04:59;100551.00;;;16.49;50.79
35908;BME280;22003;50.320;8.054;2023-05-03T13:07:25;100544.44;;;16.13;50.75
35908;BME280;22003;50.320;8.054;2023-05-03T13:09:54;100549.72;;;16.53;49.39
35908;BME280;22003;50.320;8.054;2023-05-03T13:12:20;100532.16;;;16.60;47.55
35908;BME280;22003;50.320;8.054;2023-05-03T13:14:50;100548.97;;;16.22;50.62
35908;BME280;22003;50.320;8.054;2023-05-03T13:17:16;100540.66;;;16.25;52.95
35908;BME280;22003;50.320;8.054;2023-05-03T13:19:43;100541.56;;;16.45;51.91
35908;BME280;22003;50.320;8.054;2023-05-03T13:22:12;100528.31;;;16.34;49.85
35908;BME280;22003;50.320;8.054;2023-05-03T13:24:37;100529.47;;;16.51;50.98
35908;BME280;22003;50.320;8.054;2023-05-03T13:27:03;100535.75;;;16.30;52.77
35908;BME280;22003;50.320;8.054;2023-05-03T13:29:29;100531.09;;;17.58;54.36
35908;BME280;22003;50.320;8.054;2023-05-03T13:31:54;100497.19;;;17.30;47.82
35908;BME280;22003;50.320;8.054;2023-05-03T13:34:20;100506.38;;;16.50;50.18
35908;BME280;22003;50.320;8.054;2023-05-03T13:36:45;100514.59;;;16.77;49.13
35908;BME280;22003;50.320;8.054;2023-05-03T13:39:10;100510.63;;;17.10;51.04
35908;BME280;22003;50.320;8.054;2023-05-03T13:41:38;100509.19;;;16.58;51.31
35908;BME280;22003;50.320;8.054;2023-05-03T13:44:04;100490.78;;;16.94;51.32
35908;BME280;22003;50.320;8.054;2023-05-03T13:46:30;100504.00;;;16.76;51.91
35908;BME280;22003;50.320;8.054;2023-05-03T13:48:55;100494.81;;;16.59;49.26
35908;BME280;22003;50.320;8.054;2023-05-03T13:51:20;100484.72;;;16.92;49.09
35908;BME280;22003;50.320;8.054;2023-05-03T13:53:46;100484.41;;;16.46;50.92
35908;BME280;22003;50.320;8.054;2023-05-03T13:56:11;100488.78;;;16.67;49.53
35908;BME280;22003;50.320;8.054;2023-05-03T13:58:36;100461.69;;;17.28;48.58
35908;BME280;22003;50.320;8.054;2023-05-03T14:01:04;100457.28;;;17.36;50.09
35908;BME280;22003;50.320;8.054;2023-05-03T14:03:30;100473.31;;;17.56;52.56
35908;BME280;22003;50.320;8.054;2023-05-03T14:05:56;100465.47;;;18.27;47.45
35908;BME280;22003;50.320;8.054;2023-05-03T14:08:22;100449.22;;;17.83;48.52
35908;BME280;22003;50.320;8.054;2023-05-03T14:10:48;100466.09;;;18.92;47.76
35908;BME280;22003;50.320;8.054;2023-05-03T14:13:13;100457.25;;;18.64;46.45
35908;BME280;22003;50.320;8.054;2023-05-03T14:15:39;100465.97;;;16.92;51.03
35908;BME280;22003;50.320;8.054;2023-05-03T14:18:05;100442.34;;;16.77;46.89
35908;BME280;22003;50.320;8.054;2023-05-03T14:20:32;100445.38;;;17.11;48.30
35908;BME280;22003;50.320;8.054;2023-05-03T14:22:58;100430.50;;;16.99;48.00
35908;BME280;22003;50.320;8.054;2023-05-03T14:25:25;100430.69;;;17.25;47.56
35908;BME280;22003;50.320;8.054;2023-05-03T14:27:50;100434.63;;;17.21;47.77
35908;BME280;22003;50.320;8.054;2023-05-03T14:30:16;100431.25;;;17.66;46.34
35908;BME280;22003;50.320;8.054;2023-05-03T14:32:41;100433.13;;;17.56;49.61
35908;BME280;22003;50.320;8.054;2023-05-03T14:35:06;100446.56;;;17.83;51.26
35908;BME280;22003;50.320;8.054;2023-05-03T14:37:32;100423.91;;;17.21;49.16
35908;BME280;22003;50.320;8.054;2023-05-03T14:39:57;100431.25;;;17.19;50.10
35908;BME280;22003;50.320;8.054;2023-05-03T14:42:22;100428.06;;;17.06;49.47
35908;BME280;22003;50.320;8.054;2023-05-03T14:44:48;100422.81;;;17.24;49.60
35908;BME280;22003;50.320;8.054;2023-05-03T14:47:13;100413.19;;;17.21;47.54
35908;BME280;22003;50.320;8.054;2023-05-03T14:49:39;100410.88;;;17.46;50.65
35908;BME280;22003;50.320;8.054;2023-05-03T14:52:07;100410.19;;;16.97;47.90
35908;BME280;22003;50.320;8.054;2023-05-03T14:54:33;100405.81;;;17.05;47.74
35908;BME280;22003;50.320;8.054;2023-05-03T14:56:59;100410.81;;;17.28;49.06
35908;BME280;22003;50.320;8.054;2023-05-03T14:59:25;100408.38;;;18.35;47.23
35908;BME280;22003;50.320;8.054;2023-05-03T15:01:51;100386.66;;;17.37;47.44
35908;BME280;22003;50.320;8.054;2023-05-03T15:04:17;100396.84;;;17.24;47.77
35908;BME280;22003;50.320;8.054;2023-05-03T15:06:42;100416.06;;;17.10;48.75
35908;BME280;22003;50.320;8.054;2023-05-03T15:09:07;100403.19;;;17.60;47.35
35908;BME280;22003;50.320;8.054;2023-05-03T15:11:35;100390.06;;;17.94;47.41
35908;BME280;22003;50.320;8.054;2023-05-03T15:14:00;100383.88;;;17.29;47.14
35908;BME280;22003;50.320;8.054;2023-05-03T15:16:25;100401.47;;;17.97;47.32
35908;BME280;22003;50.320;8.054;2023-05-03T15:18:50;100388.69;;;18.44;43.58
35908;BME280;22003;50.320;8.054;2023-05-03T15:21:19;100383.59;;;17.87;47.81
35908;BME280;22003;50.320;8.054;2023-05-03T15:23:45;100387.97;;;17.61;48.29
35908;BME280;22003;50.320;8.054;2023-05-03T15:26:14;100384.53;;;18.14;46.92
35908;BME280;22003;50.320;8.054;2023-05-03T15:28:39;100393.78;;;18.37;44.86
35908;BME280;22003;50.320;8.054;2023-05-03T15:31:04;100371.41;;;17.93;47.41
35908;BME280;22003;50.320;8.054;2023-05-03T15:33:37;100384.84;;;18.46;45.50
35908;BME280;22003;50.320;8.054;2023-05-03T15:36:06;100387.03;;;17.80;49.04
35908;BME280;22003;50.320;8.054;2023-05-03T15:38:32;100367.44;;;18.51;43.00
35908;BME280;22003;50.320;8.054;2023-05-03T15:40:57;100382.91;;;19.01;44.48
35908;BME280;22003;50.320;8.054;2023-05-03T15:43:22;100375.91;;;18.38;42.02
35908;BME280;22003;50.320;8.054;2023-05-03T15:45:48;100375.97;;;18.28;41.75
35908;BME280;22003;50.320;8.054;2023-05-03T15:48:13;100362.06;;;18.68;40.10
35908;BME280;22003;50.320;8.054;2023-05-03T15:50:38;100360.28;;;18.77;40.02
35908;BME280;22003;50.320;8.054;2023-05-03T15:53:03;100354.88;;;18.33;40.73
35908;BME280;22003;50.320;8.054;2023-05-03T15:55:29;100374.44;;;18.43;42.04
35908;BME280;22003;50.320;8.054;2023-05-03T15:57:54;100384.13;;;18.80;43.53
35908;BME280;22003;50.320;8.054;2023-05-03T16:00:21;100365.91;;;19.26;39.72
35908;BME280;22003;50.320;8.054;2023-05-03T16:02:47;100373.03;;;19.01;39.68
35908;BME280;22003;50.320;8.054;2023-05-03T16:05:12;100351.53;;;19.01;40.53
35908;BME280;22003;50.320;8.054;2023-05-03T16:07:37;100353.78;;;18.62;42.14
35908;BME280;22003;50.320;8.054;2023-05-03T16:10:03;100369.03;;;19.05;39.94
35908;BME280;22003;50.320;8.054;2023-05-03T16:12:28;100367.22;;;21.04;39.24
35908;BME280;22003;50.320;8.054;2023-05-03T16:14:53;100371.63;;;20.24;41.56
35908;BME280;22003;50.320;8.054;2023-05-03T16:17:19;100366.75;;;20.27;39.55
35908;BME280;22003;50.320;8.054;2023-05-03T16:19:46;100350.63;;;20.60;38.16
35908;BME280;22003;50.320;8.054;2023-05-03T16:22:11;100368.94;;;20.40;38.06
35908;BME280;22003;50.320;8.054;2023-05-03T16:24:36;100375.63;;;20.03;40.90
35908;BME280;22003;50.320;8.054;2023-05-03T16:27:02;100376.03;;;20.66;38.01
35908;BME280;22003;50.320;8.054;2023-05-03T16:29:27;100362.84;;;20.95;37.97
35908;BME280;22003;50.320;8.054;2023-05-03T16:31:56;100369.50;;;22.10;36.60
35908;BME280;22003;50.320;8.054;2023-05-03T16:34:21;100370.25;;;22.80;36.72
35908;BME280;22003;50.320;8.054;2023-05-03T16:36:46;100360.81;;;22.15;36.74
35908;BME280;22003;50.320;8.054;2023-05-03T16:39:12;100373.75;;;22.88;37.12
35908;BME280;22003;50.320;8.054;2023-05-03T16:41:38;100373.97;;;22.41;36.84
35908;BME280;22003;50.320;8.054;2023-05-03T16:44:04;100369.16;;;21.35;40.92
35908;BME280;22003;50.320;8.054;2023-05-03T16:46:39;100377.41;;;22.35;40.11
35908;BME280;22003;50.320;8.054;2023-05-03T16:49:05;100372.78;;;21.58;39.98
35908;BME280;22003;50.320;8.054;2023-05-03T16:51:30;100366.81;;;19.69;42.01
35908;BME280;22003;50.320;8.054;2023-05-03T16:53:56;100372.00;;;18.76;45.94
35908;BME280;22003;50.320;8.054;2023-05-03T16:56:22;100342.31;;;18.60;44.84
35908;BME280;22003;50.320;8.054;2023-05-03T16:58:48;100364.13;;;18.57;46.37
35908;BME280;22003;50.320;8.054;2023-05-03T17:01:13;100363.56;;;18.71;45.64
35908;BME280;22003;50.320;8.054;2023-05-03T17:03:39;100362.00;;;18.42;45.81